createdAt,value
2022-11-25T00:01:09.186Z,98240.66
2022-11-25T00:03:42.029Z,98244.83
2022-11-25T00:06:17.295Z,98240.73
2022-11-25T00:08:51.849Z,98241.22
2022-11-25T00:11:24.019Z,98240.13
2022-11-25T00:13:57.018Z,98240.31
2022-11-25T00:16:29.433Z,98240.47
2022-11-25T00:19:02.055Z,98244.19
2022-11-25T00:21:37.059Z,98245.28
2022-11-25T00:24:10.266Z,98244.48
2022-11-25T00:26:42.361Z,98243.38
2022-11-25T00:29:15.323Z,98241.30
2022-11-25T00:31:47.652Z,98244.39
2022-11-25T00:34:20.011Z,98243.73
2022-11-25T00:36:53.443Z,98245.92
2022-11-25T00:39:27.167Z,98249.80
2022-11-25T00:42:16.955Z,98251.65
2022-11-25T00:44:49.086Z,98250.36
2022-11-25T00:47:22.848Z,98252.14
2022-11-25T00:49:55.588Z,98252.74
2022-11-25T00:52:28.752Z,98254.38
2022-11-25T00:55:03.201Z,98257.95
2022-11-25T00:57:36.383Z,98255.02
2022-11-25T01:00:11.852Z,98252.36
2022-11-25T01:02:50.901Z,98254.70
2022-11-25T01:08:37.456Z,98257.55
2022-11-25T01:11:12.758Z,98257.55
2022-11-25T01:13:44.929Z,98260.04
2022-11-25T01:16:19.708Z,98259.58
2022-11-25T01:18:52.800Z,98259.66
2022-11-25T01:21:27.275Z,98261.30
2022-11-25T01:24:00.231Z,98259.66
2022-11-25T01:26:33.440Z,98254.10
2022-11-25T01:29:07.687Z,98252.40
2022-11-25T01:31:40.221Z,98252.17
2022-11-25T01:34:17.406Z,98252.48
2022-11-25T01:36:49.957Z,98252.02
2022-11-25T01:39:28.602Z,98252.29
2022-11-25T01:42:04.828Z,98249.42
2022-11-25T01:44:40.439Z,98254.60
2022-11-25T01:47:17.347Z,98258.73
2022-11-25T01:49:55.555Z,98264.42
2022-11-25T01:52:32.772Z,98264.84
2022-11-25T01:55:08.280Z,98261.51
2022-11-25T01:57:45.508Z,98258.55
2022-11-25T02:00:20.351Z,98254.92
2022-11-25T02:02:56.409Z,98258.48
2022-11-25T02:05:37.106Z,98258.20
2022-11-25T02:08:10.797Z,98259.89
2022-11-25T02:10:44.285Z,98259.43
2022-11-25T02:13:16.790Z,98261.42
2022-11-25T02:15:50.407Z,98261.70
2022-11-25T02:18:23.043Z,98265.42
2022-11-25T02:20:55.564Z,98266.42
2022-11-25T02:23:39.561Z,98266.98
2022-11-25T02:26:11.903Z,98266.98
2022-11-25T02:28:44.791Z,98267.12
2022-11-25T02:31:22.614Z,98269.08
2022-11-25T02:33:56.677Z,98271.26
2022-11-25T02:36:29.034Z,98270.27
2022-11-25T02:39:02.842Z,98271.94
2022-11-25T02:41:42.609Z,98272.14
2022-11-25T02:44:18.496Z,98274.10
2022-11-25T02:46:50.730Z,98275.46
2022-11-25T02:49:25.422Z,98276.84
2022-11-25T02:51:59.253Z,98279.17
2022-11-25T02:54:33.107Z,98279.81
2022-11-25T02:57:08.354Z,98282.05
2022-11-25T02:59:40.798Z,98285.91
2022-11-25T03:02:13.032Z,98290.01
2022-11-25T03:04:45.180Z,98289.32
2022-11-25T03:07:17.350Z,98292.61
2022-11-25T03:09:49.897Z,98294.30
2022-11-25T03:12:22.738Z,98297.52
2022-11-25T03:15:01.277Z,98299.22
2022-11-25T03:17:34.259Z,98295.36
2022-11-25T03:20:10.519Z,98292.70
2022-11-25T03:22:43.043Z,98291.12
2022-11-25T03:25:17.077Z,98293.74
2022-11-25T03:27:50.175Z,98292.86
2022-11-25T03:30:25.177Z,98297.47
2022-11-25T03:32:59.657Z,98300.98
2022-11-25T03:35:32.132Z,98306.52
2022-11-25T03:38:04.307Z,98308.21
2022-11-25T03:40:38.919Z,98308.73
2022-11-25T03:43:11.252Z,98311.71
2022-11-25T03:45:44.793Z,98315.89
2022-11-25T03:48:17.802Z,98314.34
2022-11-25T03:50:52.269Z,98307.73
2022-11-25T03:53:24.961Z,98308.83
2022-11-25T03:55:57.843Z,98312.96
2022-11-25T03:58:30.419Z,98309.20
2022-11-25T04:01:05.450Z,98310.89
2022-11-25T04:03:37.752Z,98308.91
2022-11-25T04:06:16.031Z,98311.54
2022-11-25T04:08:53.222Z,98311.37
2022-11-25T04:11:46.612Z,98313.41
2022-11-25T04:14:18.989Z,98313.75
2022-11-25T04:16:52.482Z,98316.16
2022-11-25T04:19:25.340Z,98316.30
2022-11-25T04:21:59.768Z,98316.99
2022-11-25T04:24:33.549Z,98318.69
2022-11-25T04:27:08.391Z,98318.98
2022-11-25T04:29:40.702Z,98320.55
2022-11-25T04:32:13.540Z,98318.81
2022-11-25T04:34:45.750Z,98320.88
2022-11-25T04:37:20.594Z,98322.80
2022-11-25T04:39:53.749Z,98321.64
2022-11-25T04:42:36.744Z,98324.13
2022-11-25T04:45:23.096Z,98327.80
2022-11-25T04:47:56.372Z,98331.11
2022-11-25T04:50:28.651Z,98329.36
2022-11-25T04:53:07.056Z,98332.83
2022-11-25T04:55:39.209Z,98331.58
2022-11-25T04:58:40.045Z,98335.77
2022-11-25T05:01:13.336Z,98341.78
2022-11-25T05:03:56.015Z,98339.02
2022-11-25T05:06:30.173Z,98338.67
2022-11-25T05:09:02.519Z,98340.55
2022-11-25T05:11:36.153Z,98341.08
2022-11-25T05:14:08.503Z,98343.27
2022-11-25T05:16:40.745Z,98345.35
2022-11-25T05:19:14.219Z,98350.70
2022-11-25T05:21:46.694Z,98353.30
2022-11-25T05:24:19.479Z,98356.84
2022-11-25T05:26:53.283Z,98357.64
2022-11-25T05:29:25.716Z,98363.23
2022-11-25T05:31:58.692Z,98367.08
2022-11-25T05:34:30.989Z,98373.00
2022-11-25T05:37:04.002Z,98376.11
2022-11-25T05:39:38.746Z,98378.57
2022-11-25T05:42:32.192Z,98381.45
2022-11-25T05:45:07.720Z,98381.72
2022-11-25T05:47:40.160Z,98384.78
2022-11-25T05:50:12.810Z,98381.33
2022-11-25T05:52:45.523Z,98384.04
2022-11-25T05:55:17.925Z,98385.16
2022-11-25T05:57:51.474Z,98391.04
2022-11-25T06:00:26.729Z,98391.36
2022-11-25T06:02:59.304Z,98389.52
2022-11-25T06:05:32.667Z,98392.56
2022-11-25T06:08:05.048Z,98391.02
2022-11-25T06:10:39.052Z,98383.70
2022-11-25T06:13:11.644Z,98382.98
2022-11-25T06:15:46.456Z,98387.00
2022-11-25T06:18:22.293Z,98390.25
2022-11-25T06:21:01.005Z,98388.94
2022-11-25T06:23:34.625Z,98390.36
2022-11-25T06:26:10.437Z,98394.40
2022-11-25T06:28:42.927Z,98394.83
2022-11-25T06:31:21.494Z,98397.63
2022-11-25T06:34:03.109Z,98398.35
2022-11-25T06:36:35.458Z,98404.41
2022-11-25T06:39:07.743Z,98400.12
2022-11-25T06:41:41.490Z,98400.19
2022-11-25T06:44:13.669Z,98402.77
2022-11-25T06:46:46.026Z,98403.14
2022-11-25T06:49:18.562Z,98404.38
2022-11-25T06:51:53.494Z,98406.40
2022-11-25T06:54:25.790Z,98412.63
2022-11-25T06:56:58.050Z,98408.82
2022-11-25T06:59:32.339Z,98413.38
2022-11-25T07:02:05.205Z,98420.01
2022-11-25T07:04:38.569Z,98422.95
2022-11-25T07:07:11.056Z,98426.25
2022-11-25T07:09:43.560Z,98426.55
2022-11-25T07:12:15.681Z,98426.70
2022-11-25T07:14:51.363Z,98423.94
2022-11-25T07:17:23.929Z,98424.69
2022-11-25T07:19:56.124Z,98428.11
2022-11-25T07:22:30.534Z,98428.73
2022-11-25T07:25:02.770Z,98430.90
2022-11-25T07:27:35.654Z,98435.87
2022-11-25T07:31:09.371Z,98436.98
2022-11-25T07:33:02.113Z,98435.16
2022-11-25T07:35:35.102Z,98436.73
2022-11-25T07:38:07.403Z,98436.90
2022-11-25T07:40:39.483Z,98439.63
2022-11-25T07:43:13.866Z,98443.45
2022-11-25T07:45:45.934Z,98445.33
2022-11-25T07:48:18.154Z,98448.94
2022-11-25T07:50:50.837Z,98449.33
2022-11-25T07:53:23.128Z,98454.05
2022-11-25T07:55:55.346Z,98452.09
2022-11-25T07:58:27.382Z,98453.28
2022-11-25T08:01:02.922Z,98456.55
2022-11-25T08:03:37.175Z,98458.73
2022-11-25T08:06:12.471Z,98455.23
2022-11-25T08:08:45.850Z,98458.45
2022-11-25T08:11:20.890Z,98461.35
2022-11-25T08:13:53.312Z,98464.48
2022-11-25T08:16:27.855Z,98464.27
2022-11-25T08:19:02.217Z,98468.08
2022-11-25T08:21:34.367Z,98469.13
2022-11-25T08:24:07.245Z,98467.08
2022-11-25T08:26:40.911Z,98463.96
2022-11-25T08:29:17.418Z,98464.91
2022-11-25T08:31:49.951Z,98472.83
2022-11-25T08:34:25.053Z,98470.71
2022-11-25T08:36:59.622Z,98470.77
2022-11-25T08:42:24.006Z,98472.86
2022-11-25T08:44:57.116Z,98481.10
2022-11-25T08:47:29.310Z,98484.38
2022-11-25T08:50:01.803Z,98485.85
2022-11-25T08:52:33.962Z,98487.84
2022-11-25T08:55:07.426Z,98488.34
2022-11-25T08:57:39.684Z,98489.39
2022-11-25T09:00:14.542Z,98492.90
2022-11-25T09:06:06.160Z,98490.52
2022-11-25T09:08:39.982Z,98490.55
2022-11-25T09:11:12.442Z,98492.87
2022-11-25T09:13:44.799Z,98495.92
2022-11-25T09:16:17.081Z,98496.75
2022-11-25T09:18:55.333Z,98497.11
2022-11-25T09:21:28.501Z,98495.32
2022-11-25T09:24:01.241Z,98496.34
2022-11-25T09:26:35.798Z,98493.11
2022-11-25T09:29:13.020Z,98491.64
2022-11-25T09:31:47.827Z,98490.44
2022-11-25T09:34:25.817Z,98493.87
2022-11-25T09:36:57.943Z,98494.31
2022-11-25T09:39:32.215Z,98494.60
2022-11-25T09:42:58.352Z,98493.92
2022-11-25T09:45:55.324Z,98489.70
2022-11-25T09:48:40.644Z,98489.19
2022-11-25T09:51:22.763Z,98489.09
2022-11-25T09:53:59.400Z,98490.92
2022-11-25T09:56:40.134Z,98490.85
2022-11-25T09:59:16.803Z,98488.41
2022-11-25T10:01:53.857Z,98491.64
2022-11-25T10:04:32.575Z,98494.12
2022-11-25T10:07:05.691Z,98487.34
2022-11-25T10:09:38.483Z,98489.13
2022-11-25T10:12:20.768Z,98491.67
2022-11-25T10:14:57.094Z,98491.90
2022-11-25T10:17:37.580Z,98492.91
2022-11-25T10:20:18.373Z,98492.23
2022-11-25T10:22:53.491Z,98491.65
2022-11-25T10:25:28.925Z,98490.67
2022-11-25T10:28:02.911Z,98496.27
2022-11-25T10:30:40.784Z,98494.35
2022-11-25T10:33:24.122Z,98495.70
2022-11-25T10:35:59.716Z,98500.16
2022-11-25T10:38:37.299Z,98495.19
2022-11-25T10:41:14.163Z,98493.69
2022-11-25T10:43:47.104Z,98495.34
2022-11-25T10:46:49.640Z,98495.08
2022-11-25T10:49:27.584Z,98494.80
2022-11-25T10:52:05.120Z,98490.27
2022-11-25T10:54:37.815Z,98485.71
2022-11-25T10:57:21.660Z,98485.16
2022-11-25T10:59:59.818Z,98484.23
2022-11-25T11:02:39.354Z,98488.25
2022-11-25T11:05:24.509Z,98482.65
2022-11-25T11:11:16.708Z,98481.92
2022-11-25T11:13:51.703Z,98480.27
2022-11-25T11:16:31.129Z,98482.90
2022-11-25T11:19:04.032Z,98487.20
2022-11-25T11:21:39.007Z,98488.35
2022-11-25T11:24:28.523Z,98490.06
2022-11-25T11:27:16.160Z,98491.81
2022-11-25T11:29:48.357Z,98496.29
2022-11-25T11:32:26.272Z,98497.77
2022-11-25T11:35:09.127Z,98496.66
2022-11-25T11:37:45.295Z,98497.71
2022-11-25T11:40:43.547Z,98496.73
2022-11-25T11:43:50.740Z,98498.98
2022-11-25T11:46:33.096Z,98501.74
2022-11-25T11:49:30.229Z,98501.73
2022-11-25T11:52:12.722Z,98501.23
2022-11-25T11:54:51.439Z,98507.83
2022-11-25T11:57:35.595Z,98513.13
2022-11-25T12:00:10.513Z,98513.08
2022-11-25T12:03:01.737Z,98512.17
2022-11-25T12:05:37.269Z,98510.49
2022-11-25T12:08:18.246Z,98513.00
2022-11-25T12:10:54.642Z,98517.04
2022-11-25T12:13:35.238Z,98515.77
2022-11-25T12:16:10.321Z,98515.56
2022-11-25T12:18:50.403Z,98514.64
2022-11-25T12:21:41.880Z,98511.35
2022-11-25T12:24:21.160Z,98513.38
2022-11-25T12:26:59.108Z,98515.62
2022-11-25T12:29:40.640Z,98513.52
2022-11-25T12:32:41.447Z,98515.54
2022-11-25T12:35:18.262Z,98511.28
2022-11-25T12:37:56.150Z,98513.36
2022-11-25T12:40:34.905Z,98513.30
2022-11-25T12:43:26.184Z,98508.45
2022-11-25T12:46:11.307Z,98509.69
2022-11-25T12:48:44.944Z,98509.12
2022-11-25T12:51:42.390Z,98509.43
2022-11-25T12:54:29.723Z,98511.16
2022-11-25T12:57:43.147Z,98510.94
2022-11-25T13:00:42.309Z,98512.40
2022-11-25T13:03:41.513Z,98514.16
2022-11-25T13:06:41.266Z,98515.91
2022-11-25T13:09:30.478Z,98514.43
2022-11-25T13:12:18.765Z,98517.20
2022-11-25T13:15:18.197Z,98517.67
2022-11-25T13:17:55.692Z,98518.11
2022-11-25T13:20:43.866Z,98512.09
2022-11-25T13:23:24.879Z,98515.94
2022-11-25T13:26:37.765Z,98525.05
2022-11-25T13:29:59.194Z,98527.87
2022-11-25T13:32:37.093Z,98529.08
2022-11-25T13:35:35.821Z,98526.73
2022-11-25T13:38:50.338Z,98527.81
2022-11-25T13:41:34.630Z,98525.64
2022-11-25T13:44:16.861Z,98521.21
2022-11-25T13:46:52.699Z,98530.64
2022-11-25T13:49:39.550Z,98527.16
2022-11-25T13:52:32.531Z,98526.21
2022-11-25T13:55:11.679Z,98529.01
2022-11-25T13:57:48.544Z,98526.08
2022-11-25T14:01:02.360Z,98531.40
2022-11-25T14:03:57.473Z,98534.35
2022-11-25T14:07:05.363Z,98540.30
2022-11-25T14:09:57.393Z,98545.13
2022-11-25T14:12:50.488Z,98541.79
2022-11-25T14:15:43.319Z,98544.08
2022-11-25T14:19:17.324Z,98543.77
2022-11-25T14:21:51.740Z,98548.38
2022-11-25T14:24:37.112Z,98550.41
2022-11-25T14:27:18.477Z,98551.08
2022-11-25T14:29:57.918Z,98553.65
2022-11-25T14:32:36.880Z,98555.02
2022-11-25T14:35:15.053Z,98553.70
2022-11-25T14:37:51.754Z,98554.52
2022-11-25T14:40:26.912Z,98560.91
2022-11-25T14:43:05.395Z,98554.99
2022-11-25T14:45:38.274Z,98552.80
2022-11-25T14:48:18.630Z,98555.61
2022-11-25T14:51:02.729Z,98559.27
2022-11-25T14:53:47.912Z,98559.38
2022-11-25T14:56:28.204Z,98558.89
2022-11-25T14:59:01.747Z,98556.21
2022-11-25T15:01:35.009Z,98556.09
2022-11-25T15:04:09.333Z,98556.52
2022-11-25T15:06:44.474Z,98560.86
2022-11-25T15:09:23.937Z,98563.39
2022-11-25T15:12:00.133Z,98562.95
2022-11-25T15:14:35.791Z,98559.15
2022-11-25T15:17:19.097Z,98555.35
2022-11-25T15:19:54.850Z,98557.75
2022-11-25T15:22:27.041Z,98557.71
2022-11-25T15:25:11.506Z,98561.34
2022-11-25T15:27:49.571Z,98559.52
2022-11-25T15:30:25.162Z,98564.13
2022-11-25T15:32:58.425Z,98570.04
2022-11-25T15:35:30.830Z,98570.92
2022-11-25T15:38:17.366Z,98570.89
2022-11-25T15:40:59.227Z,98570.27
2022-11-25T15:43:32.865Z,98572.46
2022-11-25T15:46:06.956Z,98573.73
2022-11-25T15:48:45.233Z,98573.90
2022-11-25T15:51:34.803Z,98575.95
2022-11-25T15:54:16.803Z,98574.63
2022-11-25T15:56:52.148Z,98581.11
2022-11-25T15:59:47.333Z,98580.11
2022-11-25T16:02:52.818Z,98577.73
2022-11-25T16:05:38.933Z,98579.77
2022-11-25T16:08:32.557Z,98578.29
2022-11-25T16:11:18.440Z,98575.89
2022-11-25T16:13:52.271Z,98580.98
2022-11-25T16:16:27.903Z,98584.70
2022-11-25T16:19:18.401Z,98585.09
2022-11-25T16:21:55.751Z,98584.76
2022-11-25T16:24:41.625Z,98587.27
2022-11-25T16:27:25.137Z,98582.94
2022-11-25T16:29:59.639Z,98583.84
2022-11-25T16:32:34.034Z,98584.77
2022-11-25T16:35:16.020Z,98586.91
2022-11-25T16:37:49.593Z,98594.02
2022-11-25T16:40:22.121Z,98591.84
2022-11-25T16:42:54.492Z,98589.95
2022-11-25T16:45:28.496Z,98592.42
2022-11-25T16:48:01.037Z,98594.45
2022-11-25T16:50:33.568Z,98597.06
2022-11-25T16:53:05.817Z,98598.59
2022-11-25T16:55:38.817Z,98595.61
2022-11-25T16:58:17.909Z,98596.60
2022-11-25T17:00:52.952Z,98597.92
2022-11-25T17:03:26.825Z,98599.57
2022-11-25T17:06:00.094Z,98601.42
2022-11-25T17:08:33.349Z,98602.76
2022-11-25T17:11:05.608Z,98600.47
2022-11-25T17:13:43.650Z,98609.38
2022-11-25T17:16:18.530Z,98608.84
2022-11-25T17:18:56.589Z,98612.84
2022-11-25T17:21:29.379Z,98620.61
2022-11-25T17:24:07.566Z,98624.04
2022-11-25T17:26:43.422Z,98628.27
2022-11-25T17:29:19.862Z,98630.75
2022-11-25T17:31:57.978Z,98628.20
2022-11-25T17:34:34.896Z,98625.20
2022-11-25T17:37:16.573Z,98625.33
2022-11-25T17:39:49.423Z,98627.82
2022-11-25T17:42:24.767Z,98630.85
2022-11-25T17:44:57.097Z,98631.64
2022-11-25T17:47:29.396Z,98631.08
2022-11-25T17:50:01.818Z,98632.08
2022-11-25T17:52:34.063Z,98630.94
2022-11-25T17:55:06.699Z,98631.78
2022-11-25T17:57:39.105Z,98629.27
2022-11-25T18:00:16.789Z,98630.75
2022-11-25T18:02:49.609Z,98629.21
2022-11-25T18:05:24.232Z,98633.41
2022-11-25T18:07:56.698Z,98632.43
2022-11-25T18:10:29.873Z,98634.13
2022-11-25T18:13:04.291Z,98640.33
2022-11-25T18:15:38.549Z,98647.93
2022-11-25T18:18:25.343Z,98648.92
2022-11-25T18:20:57.502Z,98654.45
2022-11-25T18:23:29.723Z,98661.02
2022-11-25T18:26:03.982Z,98662.73
2022-11-25T18:28:36.378Z,98659.58
2022-11-25T18:31:11.968Z,98657.16
2022-11-25T18:33:44.383Z,98658.65
2022-11-25T18:36:16.803Z,98661.48
2022-11-25T18:38:50.913Z,98666.17
2022-11-25T18:41:23.853Z,98670.40
2022-11-25T18:44:02.865Z,98672.86
2022-11-25T18:46:38.851Z,98669.67
2022-11-25T18:49:14.811Z,98669.99
2022-11-25T18:51:47.358Z,98670.40
2022-11-25T18:54:19.627Z,98669.46
2022-11-25T18:56:53.292Z,98665.86
2022-11-25T18:59:33.440Z,98661.48
2022-11-25T19:02:11.767Z,98663.06
2022-11-25T19:04:44.341Z,98664.13
2022-11-25T19:07:16.883Z,98662.87
2022-11-25T19:09:49.032Z,98665.17
2022-11-25T19:12:22.205Z,98668.16
2022-11-25T19:14:57.278Z,98672.50
2022-11-25T19:17:29.656Z,98672.44
2022-11-25T19:20:02.095Z,98668.45
2022-11-25T19:22:34.210Z,98669.14
2022-11-25T19:25:06.513Z,98669.04
2022-11-25T19:27:42.873Z,98671.34
2022-11-25T19:30:19.384Z,98676.02
2022-11-25T19:32:55.012Z,98677.98
2022-11-25T19:35:32.734Z,98685.87
2022-11-25T19:38:08.514Z,98696.10
2022-11-25T19:40:41.137Z,98701.09
2022-11-25T19:43:13.233Z,98702.52
2022-11-25T19:45:46.613Z,98706.27
2022-11-25T19:48:21.726Z,98710.00
2022-11-25T19:50:59.813Z,98711.24
2022-11-25T19:53:34.367Z,98711.40
2022-11-25T19:56:07.221Z,98708.20
2022-11-25T19:58:39.255Z,98709.99
2022-11-25T20:01:16.890Z,98718.57
2022-11-25T20:03:51.072Z,98717.70
2022-11-25T20:06:23.953Z,98716.52
2022-11-25T20:08:59.783Z,98718.16
2022-11-25T20:11:37.761Z,98719.63
2022-11-25T20:14:09.888Z,98720.83
2022-11-25T20:16:43.994Z,98722.02
2022-11-25T20:19:19.774Z,98724.77
2022-11-25T20:21:52.007Z,98727.05
2022-11-25T20:24:24.277Z,98723.73
2022-11-25T20:26:57.839Z,98726.39
2022-11-25T20:29:30.784Z,98729.42
2022-11-25T20:32:26.495Z,98733.23
2022-11-25T20:34:59.893Z,98736.85
2022-11-25T20:37:40.508Z,98738.17
2022-11-25T20:40:18.876Z,98734.30
2022-11-25T20:42:51.743Z,98731.50
2022-11-25T20:45:25.985Z,98731.14
2022-11-25T20:47:59.390Z,98732.96
2022-11-25T20:50:32.284Z,98733.11
2022-11-25T20:53:11.845Z,98732.67
2022-11-25T20:55:48.663Z,98733.66
2022-11-25T20:58:26.940Z,98733.04
2022-11-25T21:01:00.297Z,98732.50
2022-11-25T21:03:32.823Z,98734.04
2022-11-25T21:06:13.375Z,98740.43
2022-11-25T21:08:45.535Z,98741.80
2022-11-25T21:11:18.220Z,98740.54
2022-11-25T21:13:51.954Z,98737.44
2022-11-25T21:16:25.710Z,98734.83
2022-11-25T21:19:00.855Z,98738.11
2022-11-25T21:21:35.478Z,98738.70
2022-11-25T21:24:18.477Z,98737.18
2022-11-25T21:26:50.775Z,98737.15
2022-11-25T21:29:23.008Z,98738.84
2022-11-25T21:31:55.400Z,98738.06
2022-11-25T21:34:27.722Z,98739.32
2022-11-25T21:37:01.129Z,98742.08
2022-11-25T21:39:35.272Z,98744.55
2022-11-25T21:42:15.706Z,98746.80
2022-11-25T21:44:47.970Z,98746.50
2022-11-25T21:47:22.470Z,98747.30
2022-11-25T21:49:57.106Z,98753.71
2022-11-25T21:52:30.505Z,98753.48
2022-11-25T21:55:02.964Z,98752.61
2022-11-25T21:57:35.148Z,98754.92
2022-11-25T22:00:18.332Z,98757.35
2022-11-25T22:02:54.099Z,98756.86
2022-11-25T22:05:26.964Z,98756.41
2022-11-25T22:07:59.769Z,98758.66
2022-11-25T22:10:32.049Z,98761.91
2022-11-25T22:13:06.607Z,98762.02
2022-11-25T22:15:38.952Z,98771.02
2022-11-25T22:18:19.538Z,98771.48
2022-11-25T22:20:53.593Z,98771.69
2022-11-25T22:23:26.150Z,98776.28
2022-11-25T22:25:59.004Z,98773.76
2022-11-25T22:28:32.225Z,98783.46
2022-11-25T22:31:08.117Z,98780.34
2022-11-25T22:33:40.688Z,98785.73
2022-11-25T22:36:30.766Z,98788.93
2022-11-25T22:43:20.683Z,98788.36
2022-11-25T22:45:53.022Z,98788.88
2022-11-25T22:48:32.094Z,98793.70
2022-11-25T22:51:04.700Z,98796.27
2022-11-25T22:53:36.786Z,98791.30
2022-11-25T22:56:17.667Z,98792.08
2022-11-25T22:58:49.998Z,98793.80
2022-11-25T23:01:27.393Z,98795.31
2022-11-25T23:03:59.704Z,98792.38
2022-11-25T23:06:32.172Z,98797.57
2022-11-25T23:09:07.335Z,98794.64
2022-11-25T23:11:41.759Z,98794.82
2022-11-25T23:14:14.209Z,98794.15
2022-11-25T23:16:46.715Z,98792.70
2022-11-25T23:19:20.111Z,98791.36
2022-11-25T23:21:55.112Z,98791.33
2022-11-25T23:24:28.348Z,98793.80
2022-11-25T23:27:00.417Z,98796.55
2022-11-25T23:29:33.000Z,98797.89
2022-11-25T23:32:07.866Z,98804.48
2022-11-25T23:34:40.392Z,98809.50
2022-11-25T23:37:17.942Z,98810.45
2022-11-25T23:39:52.486Z,98808.80
2022-11-25T23:42:26.887Z,98809.89
2022-11-25T23:44:59.039Z,98812.34
2022-11-25T23:47:31.214Z,98819.34
2022-11-25T23:50:03.600Z,98817.98
2022-11-25T23:52:36.097Z,98822.16
2022-11-25T23:55:13.783Z,98827.90
2022-11-25T23:57:48.582Z,98827.83
